sensor_id;sensor_type;location;lat;lon;timestamp;P1;durP1;ratioP1;P2;durP2;ratioP2
63046;SDS011;62025;39.238;9.126;2023-03-23T07:39:15;16.58;;;9.52;;
63046;SDS011;62025;39.238;9.126;2023-03-23T07:41:43;11.43;;;7.67;;
63046;SDS011;62025;39.238;9.126;2023-03-23T07:44:24;9.65;;;7.00;;
63046;SDS011;62025;39.238;9.126;2023-03-23T07:46:50;9.32;;;6.93;;
63046;SDS011;62025;39.238;9.126;2023-03-23T07:49:26;11.30;;;7.00;;
63046;SDS011;62025;39.238;9.126;2023-03-23T07:52:01;7.88;;;6.30;;
63046;SDS011;62025;39.238;9.126;2023-03-23T07:54:28;7.80;;;6.10;;
63046;SDS011;62025;39.238;9.126;2023-03-23T07:57:06;8.13;;;5.70;;
63046;SDS011;62025;39.238;9.126;2023-03-23T07:59:37;6.57;;;5.57;;
63046;SDS011;62025;39.238;9.126;2023-03-23T08:02:03;8.15;;;5.25;;
63046;SDS011;62025;39.238;9.126;2023-03-23T08:04:47;8.52;;;5.50;;
63046;SDS011;62025;39.238;9.126;2023-03-23T08:07:24;6.93;;;5.40;;
63046;SDS011;62025;39.238;9.126;2023-03-23T08:10:16;6.85;;;5.22;;
63046;SDS011;62025;39.238;9.126;2023-03-23T08:12:55;8.43;;;5.05;;
63046;SDS011;62025;39.238;9.126;2023-03-23T08:15:57;6.22;;;5.20;;
63046;SDS011;62025;39.238;9.126;2023-03-23T08:18:39;7.95;;;5.78;;
63046;SDS011;62025;39.238;9.126;2023-03-23T08:21:22;7.45;;;5.95;;
63046;SDS011;62025;39.238;9.126;2023-03-23T08:24:08;11.20;;;6.50;;
63046;SDS011;62025;39.238;9.126;2023-03-23T08:26:53;6.72;;;5.20;;
63046;SDS011;62025;39.238;9.126;2023-03-23T08:29:37;7.30;;;5.03;;
63046;SDS011;62025;39.238;9.126;2023-03-23T08:32:14;7.82;;;5.00;;
63046;SDS011;62025;39.238;9.126;2023-03-23T08:34:40;5.25;;;4.40;;
63046;SDS011;62025;39.238;9.126;2023-03-23T08:37:25;6.25;;;4.60;;
63046;SDS011;62025;39.238;9.126;2023-03-23T08:40:05;8.95;;;4.60;;
63046;SDS011;62025;39.238;9.126;2023-03-23T08:42:52;6.45;;;4.47;;
63046;SDS011;62025;39.238;9.126;2023-03-23T08:45:37;11.25;;;4.82;;
63046;SDS011;62025;39.238;9.126;2023-03-23T08:48:29;5.50;;;4.43;;
63046;SDS011;62025;39.238;9.126;2023-03-23T08:51:27;5.13;;;4.05;;
63046;SDS011;62025;39.238;9.126;2023-03-23T08:54:19;5.45;;;4.25;;
63046;SDS011;62025;39.238;9.126;2023-03-23T08:57:04;5.30;;;4.43;;
63046;SDS011;62025;39.238;9.126;2023-03-23T08:59:43;5.80;;;4.30;;
63046;SDS011;62025;39.238;9.126;2023-03-23T09:02:36;4.32;;;3.58;;
63046;SDS011;62025;39.238;9.126;2023-03-23T09:05:13;5.93;;;3.75;;
63046;SDS011;62025;39.238;9.126;2023-03-23T09:08:08;4.57;;;3.42;;
63046;SDS011;62025;39.238;9.126;2023-03-23T09:10:34;4.10;;;3.50;;
63046;SDS011;62025;39.238;9.126;2023-03-23T09:13:00;4.97;;;4.10;;
63046;SDS011;62025;39.238;9.126;2023-03-23T09:15:26;6.10;;;3.75;;
63046;SDS011;62025;39.238;9.126;2023-03-23T09:17:53;4.30;;;3.60;;
63046;SDS011;62025;39.238;9.126;2023-03-23T09:20:20;4.45;;;3.72;;
63046;SDS011;62025;39.238;9.126;2023-03-23T09:22:50;7.22;;;4.00;;
63046;SDS011;62025;39.238;9.126;2023-03-23T09:25:20;7.53;;;4.40;;
63046;SDS011;62025;39.238;9.126;2023-03-23T09:27:54;5.93;;;4.70;;
63046;SDS011;62025;39.238;9.126;2023-03-23T09:30:23;6.30;;;5.03;;
63046;SDS011;62025;39.238;9.126;2023-03-23T09:32:55;5.95;;;4.35;;
63046;SDS011;62025;39.238;9.126;2023-03-23T09:35:23;8.65;;;4.60;;
63046;SDS011;62025;39.238;9.126;2023-03-23T09:37:50;8.07;;;4.50;;
63046;SDS011;62025;39.238;9.126;2023-03-23T09:40:19;5.65;;;4.10;;
63046;SDS011;62025;39.238;9.126;2023-03-23T09:54:24;4.50;;;4.05;;
63046;SDS011;62025;39.238;9.126;2023-03-23T09:57:04;3.38;;;3.08;;
63046;SDS011;62025;39.238;9.126;2023-03-23T10:02:44;4.13;;;3.35;;
63046;SDS011;62025;39.238;9.126;2023-03-23T10:05:37;5.90;;;3.40;;
63046;SDS011;62025;39.238;9.126;2023-03-23T10:08:11;5.00;;;3.38;;
63046;SDS011;62025;39.238;9.126;2023-03-23T10:16:31;5.03;;;2.85;;
63046;SDS011;62025;39.238;9.126;2023-03-23T10:21:48;4.70;;;2.30;;
63046;SDS011;62025;39.238;9.126;2023-03-23T10:24:21;3.60;;;2.60;;
63046;SDS011;62025;39.238;9.126;2023-03-23T10:29:53;3.30;;;2.00;;
63046;SDS011;62025;39.238;9.126;2023-03-23T10:35:17;3.22;;;2.00;;
63046;SDS011;62025;39.238;9.126;2023-03-23T10:38:04;3.93;;;2.60;;
63046;SDS011;62025;39.238;9.126;2023-03-23T10:40:44;4.10;;;2.30;;
63046;SDS011;62025;39.238;9.126;2023-03-23T10:43:19;5.78;;;2.20;;
63046;SDS011;62025;39.238;9.126;2023-03-23T10:45:47;2.95;;;2.00;;
63046;SDS011;62025;39.238;9.126;2023-03-23T10:48:34;6.22;;;2.20;;
63046;SDS011;62025;39.238;9.126;2023-03-23T10:51:04;7.22;;;3.40;;
63046;SDS011;62025;39.238;9.126;2023-03-23T10:53:36;4.53;;;2.50;;
63046;SDS011;62025;39.238;9.126;2023-03-23T10:56:23;3.88;;;2.78;;
63046;SDS011;62025;39.238;9.126;2023-03-23T10:58:59;2.78;;;2.30;;
63046;SDS011;62025;39.238;9.126;2023-03-23T11:04:03;6.78;;;2.58;;
63046;SDS011;62025;39.238;9.126;2023-03-23T11:06:38;2.45;;;2.15;;
63046;SDS011;62025;39.238;9.126;2023-03-23T11:09:13;5.22;;;2.40;;
63046;SDS011;62025;39.238;9.126;2023-03-23T11:11:52;4.50;;;2.65;;
63046;SDS011;62025;39.238;9.126;2023-03-23T11:14:34;7.10;;;3.03;;
63046;SDS011;62025;39.238;9.126;2023-03-23T11:17:05;3.50;;;2.33;;
63046;SDS011;62025;39.238;9.126;2023-03-23T11:19:49;2.97;;;2.20;;
63046;SDS011;62025;39.238;9.126;2023-03-23T11:24:53;2.60;;;2.30;;
63046;SDS011;62025;39.238;9.126;2023-03-23T11:27:26;4.75;;;2.28;;
63046;SDS011;62025;39.238;9.126;2023-03-23T11:30:00;3.17;;;2.10;;
63046;SDS011;62025;39.238;9.126;2023-03-23T11:32:36;2.90;;;2.30;;
63046;SDS011;62025;39.238;9.126;2023-03-23T11:35:16;3.38;;;2.40;;
63046;SDS011;62025;39.238;9.126;2023-03-23T11:37:49;2.42;;;2.10;;
63046;SDS011;62025;39.238;9.126;2023-03-23T11:40:25;2.20;;;1.98;;
63046;SDS011;62025;39.238;9.126;2023-03-23T11:42:58;3.17;;;2.13;;
63046;SDS011;62025;39.238;9.126;2023-03-23T11:45:37;2.47;;;2.25;;
63046;SDS011;62025;39.238;9.126;2023-03-23T11:53:45;3.63;;;2.50;;
63046;SDS011;62025;39.238;9.126;2023-03-23T11:56:39;5.10;;;2.70;;
63046;SDS011;62025;39.238;9.126;2023-03-23T11:59:10;4.38;;;2.50;;
63046;SDS011;62025;39.238;9.126;2023-03-23T12:04:43;4.53;;;2.40;;
63046;SDS011;62025;39.238;9.126;2023-03-23T12:18:59;6.80;;;4.63;;
63046;SDS011;62025;39.238;9.126;2023-03-23T12:28:24;9.20;;;7.10;;
63046;SDS011;62025;39.238;9.126;2023-03-23T12:30:35;11.68;;;7.53;;
63046;SDS011;62025;39.238;9.126;2023-03-23T12:48:25;6.75;;;4.30;;
63046;SDS011;62025;39.238;9.126;2023-03-23T12:54:07;8.55;;;4.20;;
63046;SDS011;62025;39.238;9.126;2023-03-23T12:57:05;5.85;;;4.20;;
63046;SDS011;62025;39.238;9.126;2023-03-23T12:59:45;5.07;;;3.88;;
63046;SDS011;62025;39.238;9.126;2023-03-23T13:02:35;6.53;;;3.60;;
63046;SDS011;62025;39.238;9.126;2023-03-23T13:08:02;4.28;;;3.80;;
63046;SDS011;62025;39.238;9.126;2023-03-23T13:10:49;7.40;;;3.95;;
63046;SDS011;62025;39.238;9.126;2023-03-23T13:13:18;5.18;;;4.18;;
63046;SDS011;62025;39.238;9.126;2023-03-23T13:24:10;4.93;;;4.40;;
63046;SDS011;62025;39.238;9.126;2023-03-23T13:26:43;5.78;;;3.80;;
63046;SDS011;62025;39.238;9.126;2023-03-23T13:29:13;6.82;;;4.30;;
63046;SDS011;62025;39.238;9.126;2023-03-23T13:31:44;5.32;;;3.33;;
63046;SDS011;62025;39.238;9.126;2023-03-23T13:34:21;4.70;;;3.53;;
63046;SDS011;62025;39.238;9.126;2023-03-23T13:44:55;4.38;;;2.80;;
63046;SDS011;62025;39.238;9.126;2023-03-23T13:47:49;4.95;;;3.00;;
63046;SDS011;62025;39.238;9.126;2023-03-23T13:50:42;5.03;;;3.40;;
63046;SDS011;62025;39.238;9.126;2023-03-23T13:53:44;4.82;;;3.00;;
63046;SDS011;62025;39.238;9.126;2023-03-23T13:56:20;5.65;;;3.08;;
63046;SDS011;62025;39.238;9.126;2023-03-23T13:59:06;6.45;;;2.85;;
63046;SDS011;62025;39.238;9.126;2023-03-23T14:01:38;4.47;;;2.78;;
63046;SDS011;62025;39.238;9.126;2023-03-23T14:04:16;3.20;;;2.90;;
63046;SDS011;62025;39.238;9.126;2023-03-23T14:06:45;6.70;;;2.83;;
63046;SDS011;62025;39.238;9.126;2023-03-23T14:09:28;4.95;;;2.75;;
63046;SDS011;62025;39.238;9.126;2023-03-23T14:12:03;4.00;;;2.60;;
63046;SDS011;62025;39.238;9.126;2023-03-23T14:14:41;7.72;;;3.00;;
63046;SDS011;62025;39.238;9.126;2023-03-23T14:17:17;3.78;;;2.63;;
63046;SDS011;62025;39.238;9.126;2023-03-23T14:20:00;5.22;;;2.60;;
63046;SDS011;62025;39.238;9.126;2023-03-23T14:22:39;4.45;;;2.70;;
63046;SDS011;62025;39.238;9.126;2023-03-23T14:25:12;3.60;;;2.85;;
63046;SDS011;62025;39.238;9.126;2023-03-23T14:27:46;3.33;;;2.80;;
63046;SDS011;62025;39.238;9.126;2023-03-23T14:30:13;5.03;;;2.85;;
63046;SDS011;62025;39.238;9.126;2023-03-23T14:32:44;2.88;;;2.50;;
63046;SDS011;62025;39.238;9.126;2023-03-23T14:35:17;5.43;;;2.60;;
63046;SDS011;62025;39.238;9.126;2023-03-23T14:37:56;3.80;;;2.60;;
63046;SDS011;62025;39.238;9.126;2023-03-23T14:40:25;5.97;;;2.30;;
63046;SDS011;62025;39.238;9.126;2023-03-23T14:42:53;2.88;;;2.30;;
63046;SDS011;62025;39.238;9.126;2023-03-23T14:45:22;3.55;;;2.05;;
63046;SDS011;62025;39.238;9.126;2023-03-23T14:47:51;3.40;;;2.15;;
63046;SDS011;62025;39.238;9.126;2023-03-23T14:50:26;4.70;;;2.15;;
63046;SDS011;62025;39.238;9.126;2023-03-23T14:53:21;3.67;;;2.40;;
63046;SDS011;62025;39.238;9.126;2023-03-23T14:56:12;4.60;;;2.50;;
63046;SDS011;62025;39.238;9.126;2023-03-23T14:58:44;4.47;;;2.58;;
63046;SDS011;62025;39.238;9.126;2023-03-23T15:01:12;3.67;;;2.70;;
63046;SDS011;62025;39.238;9.126;2023-03-23T15:04:04;2.80;;;2.60;;
63046;SDS011;62025;39.238;9.126;2023-03-23T15:06:53;5.57;;;2.53;;
63046;SDS011;62025;39.238;9.126;2023-03-23T15:09:27;5.50;;;2.50;;
63046;SDS011;62025;39.238;9.126;2023-03-23T15:14:28;7.80;;;3.85;;
63046;SDS011;62025;39.238;9.126;2023-03-23T15:17:11;5.47;;;3.70;;
63046;SDS011;62025;39.238;9.126;2023-03-23T15:19:50;4.70;;;3.00;;
63046;SDS011;62025;39.238;9.126;2023-03-23T15:22:30;3.95;;;2.83;;
63046;SDS011;62025;39.238;9.126;2023-03-23T15:25:10;3.22;;;2.63;;
63046;SDS011;62025;39.238;9.126;2023-03-23T15:27:57;3.22;;;2.58;;
63046;SDS011;62025;39.238;9.126;2023-03-23T15:30:46;2.97;;;2.30;;
63046;SDS011;62025;39.238;9.126;2023-03-23T15:33:19;4.78;;;2.20;;
63046;SDS011;62025;39.238;9.126;2023-03-23T15:35:51;3.08;;;2.40;;
63046;SDS011;62025;39.238;9.126;2023-03-23T15:38:23;3.67;;;2.70;;
63046;SDS011;62025;39.238;9.126;2023-03-23T15:40:58;3.67;;;2.30;;
63046;SDS011;62025;39.238;9.126;2023-03-23T15:43:32;3.38;;;2.75;;
63046;SDS011;62025;39.238;9.126;2023-03-23T15:48:49;3.67;;;2.70;;
63046;SDS011;62025;39.238;9.126;2023-03-23T15:51:29;4.13;;;2.60;;
63046;SDS011;62025;39.238;9.126;2023-03-23T15:53:58;6.13;;;2.60;;
63046;SDS011;62025;39.238;9.126;2023-03-23T15:56:24;3.45;;;2.53;;
63046;SDS011;62025;39.238;9.126;2023-03-23T15:58:51;3.65;;;2.40;;
63046;SDS011;62025;39.238;9.126;2023-03-23T16:01:18;4.90;;;2.60;;
63046;SDS011;62025;39.238;9.126;2023-03-23T16:03:57;3.35;;;2.20;;
63046;SDS011;62025;39.238;9.126;2023-03-23T16:06:32;3.00;;;2.08;;
63046;SDS011;62025;39.238;9.126;2023-03-23T16:09:00;3.33;;;2.42;;
63046;SDS011;62025;39.238;9.126;2023-03-23T16:11:28;2.53;;;2.13;;
63046;SDS011;62025;39.238;9.126;2023-03-23T16:13:56;3.03;;;2.03;;
63046;SDS011;62025;39.238;9.126;2023-03-23T16:16:24;5.85;;;3.22;;
63046;SDS011;62025;39.238;9.126;2023-03-23T16:18:55;7.82;;;2.42;;
63046;SDS011;62025;39.238;9.126;2023-03-23T16:21:21;4.15;;;2.10;;
63046;SDS011;62025;39.238;9.126;2023-03-23T16:23:48;3.28;;;2.20;;
63046;SDS011;62025;39.238;9.126;2023-03-23T16:26:14;2.58;;;2.38;;
63046;SDS011;62025;39.238;9.126;2023-03-23T16:28:41;5.35;;;2.10;;
63046;SDS011;62025;39.238;9.126;2023-03-23T16:31:08;2.22;;;1.83;;
63046;SDS011;62025;39.238;9.126;2023-03-23T16:33:34;6.95;;;2.25;;
63046;SDS011;62025;39.238;9.126;2023-03-23T16:36:00;5.03;;;2.67;;
63046;SDS011;62025;39.238;9.126;2023-03-23T16:38:27;2.42;;;1.75;;
63046;SDS011;62025;39.238;9.126;2023-03-23T16:40:53;2.45;;;1.55;;
63046;SDS011;62025;39.238;9.126;2023-03-23T16:43:19;4.03;;;1.50;;
63046;SDS011;62025;39.238;9.126;2023-03-23T16:45:46;5.68;;;1.60;;
63046;SDS011;62025;39.238;9.126;2023-03-23T16:48:13;8.30;;;1.70;;
63046;SDS011;62025;39.238;9.126;2023-03-23T16:50:41;5.43;;;1.67;;
63046;SDS011;62025;39.238;9.126;2023-03-23T16:53:08;2.95;;;1.70;;
63046;SDS011;62025;39.238;9.126;2023-03-23T16:55:35;4.18;;;2.03;;
63046;SDS011;62025;39.238;9.126;2023-03-23T16:58:02;4.20;;;2.03;;
63046;SDS011;62025;39.238;9.126;2023-03-23T17:00:29;4.05;;;2.30;;
63046;SDS011;62025;39.238;9.126;2023-03-23T17:02:55;3.42;;;2.35;;
63046;SDS011;62025;39.238;9.126;2023-03-23T17:05:23;8.52;;;1.70;;
63046;SDS011;62025;39.238;9.126;2023-03-23T17:07:52;5.82;;;1.80;;
63046;SDS011;62025;39.238;9.126;2023-03-23T17:10:23;6.97;;;1.50;;
63046;SDS011;62025;39.238;9.126;2023-03-23T17:12:51;4.05;;;1.80;;
63046;SDS011;62025;39.238;9.126;2023-03-23T17:15:19;1.88;;;1.30;;
63046;SDS011;62025;39.238;9.126;2023-03-23T17:17:45;3.88;;;1.60;;
63046;SDS011;62025;39.238;9.126;2023-03-23T17:20:12;3.15;;;2.00;;
63046;SDS011;62025;39.238;9.126;2023-03-23T17:22:38;3.22;;;2.08;;
63046;SDS011;62025;39.238;9.126;2023-03-23T17:25:05;6.22;;;1.77;;
63046;SDS011;62025;39.238;9.126;2023-03-23T17:27:32;2.93;;;2.13;;
63046;SDS011;62025;39.238;9.126;2023-03-23T17:30:00;1.98;;;1.75;;
63046;SDS011;62025;39.238;9.126;2023-03-23T17:32:26;5.30;;;2.05;;
63046;SDS011;62025;39.238;9.126;2023-03-23T17:34:52;4.43;;;1.92;;
63046;SDS011;62025;39.238;9.126;2023-03-23T17:37:19;2.88;;;1.70;;
63046;SDS011;62025;39.238;9.126;2023-03-23T17:39:46;8.02;;;1.77;;
63046;SDS011;62025;39.238;9.126;2023-03-23T17:42:12;1.92;;;1.60;;
63046;SDS011;62025;39.238;9.126;2023-03-23T17:44:38;3.75;;;1.95;;
63046;SDS011;62025;39.238;9.126;2023-03-23T17:47:04;3.90;;;2.50;;
63046;SDS011;62025;39.238;9.126;2023-03-23T17:49:31;7.07;;;2.10;;
63046;SDS011;62025;39.238;9.126;2023-03-23T17:51:57;4.20;;;2.30;;
63046;SDS011;62025;39.238;9.126;2023-03-23T17:54:24;6.55;;;2.83;;
63046;SDS011;62025;39.238;9.126;2023-03-23T17:56:51;9.38;;;3.83;;
63046;SDS011;62025;39.238;9.126;2023-03-23T17:59:18;2.97;;;2.20;;
63046;SDS011;62025;39.238;9.126;2023-03-23T18:01:45;4.10;;;2.42;;
63046;SDS011;62025;39.238;9.126;2023-03-23T18:04:13;4.95;;;3.00;;
63046;SDS011;62025;39.238;9.126;2023-03-23T18:06:40;4.18;;;2.75;;
63046;SDS011;62025;39.238;9.126;2023-03-23T18:09:06;3.50;;;2.95;;
63046;SDS011;62025;39.238;9.126;2023-03-23T18:11:32;3.13;;;1.90;;
63046;SDS011;62025;39.238;9.126;2023-03-23T18:13:58;5.15;;;2.20;;
63046;SDS011;62025;39.238;9.126;2023-03-23T18:16:24;4.10;;;2.28;;
63046;SDS011;62025;39.238;9.126;2023-03-23T18:18:50;3.72;;;2.13;;
63046;SDS011;62025;39.238;9.126;2023-03-23T18:21:16;4.72;;;2.08;;
63046;SDS011;62025;39.238;9.126;2023-03-23T18:23:43;2.80;;;2.00;;
63046;SDS011;62025;39.238;9.126;2023-03-23T18:26:10;4.18;;;1.80;;
63046;SDS011;62025;39.238;9.126;2023-03-23T18:28:38;3.90;;;1.88;;
63046;SDS011;62025;39.238;9.126;2023-03-23T18:31:06;4.60;;;2.20;;
63046;SDS011;62025;39.238;9.126;2023-03-23T18:33:35;4.63;;;2.00;;
63046;SDS011;62025;39.238;9.126;2023-03-23T18:36:03;6.38;;;2.22;;
63046;SDS011;62025;39.238;9.126;2023-03-23T18:38:31;6.13;;;2.60;;
63046;SDS011;62025;39.238;9.126;2023-03-23T18:40:58;3.45;;;2.45;;
63046;SDS011;62025;39.238;9.126;2023-03-23T18:43:24;4.10;;;2.28;;
63046;SDS011;62025;39.238;9.126;2023-03-23T18:45:50;2.45;;;1.90;;
63046;SDS011;62025;39.238;9.126;2023-03-23T18:50:48;1.95;;;1.77;;
63046;SDS011;62025;39.238;9.126;2023-03-23T18:53:17;4.70;;;1.98;;
63046;SDS011;62025;39.238;9.126;2023-03-23T18:55:44;2.65;;;1.70;;
63046;SDS011;62025;39.238;9.126;2023-03-23T18:58:12;4.90;;;2.00;;
63046;SDS011;62025;39.238;9.126;2023-03-23T19:00:40;5.10;;;1.83;;
63046;SDS011;62025;39.238;9.126;2023-03-23T19:03:07;2.22;;;1.90;;
63046;SDS011;62025;39.238;9.126;2023-03-23T19:05:34;2.30;;;2.10;;
63046;SDS011;62025;39.238;9.126;2023-03-23T19:08:03;2.88;;;2.55;;
63046;SDS011;62025;39.238;9.126;2023-03-23T19:10:30;5.45;;;1.90;;
63046;SDS011;62025;39.238;9.126;2023-03-23T19:13:01;1.92;;;1.50;;
63046;SDS011;62025;39.238;9.126;2023-03-23T19:15:28;4.70;;;1.83;;
63046;SDS011;62025;39.238;9.126;2023-03-23T19:17:54;4.43;;;2.25;;
63046;SDS011;62025;39.238;9.126;2023-03-23T19:20:24;3.33;;;2.33;;
63046;SDS011;62025;39.238;9.126;2023-03-23T19:22:50;4.93;;;2.28;;
63046;SDS011;62025;39.238;9.126;2023-03-23T19:25:17;5.43;;;2.70;;
63046;SDS011;62025;39.238;9.126;2023-03-23T19:27:43;7.43;;;5.43;;
63046;SDS011;62025;39.238;9.126;2023-03-23T19:30:11;7.57;;;5.50;;
63046;SDS011;62025;39.238;9.126;2023-03-23T19:32:38;9.20;;;6.90;;
63046;SDS011;62025;39.238;9.126;2023-03-23T19:35:04;9.95;;;7.57;;
63046;SDS011;62025;39.238;9.126;2023-03-23T19:37:31;10.73;;;8.52;;
63046;SDS011;62025;39.238;9.126;2023-03-23T19:39:57;17.27;;;9.30;;
63046;SDS011;62025;39.238;9.126;2023-03-23T19:42:23;13.77;;;9.57;;
63046;SDS011;62025;39.238;9.126;2023-03-23T19:44:50;12.57;;;8.70;;
63046;SDS011;62025;39.238;9.126;2023-03-23T19:47:16;14.60;;;9.02;;
63046;SDS011;62025;39.238;9.126;2023-03-23T19:49:43;14.88;;;9.25;;
63046;SDS011;62025;39.238;9.126;2023-03-23T19:52:09;17.60;;;9.98;;
63046;SDS011;62025;39.238;9.126;2023-03-23T19:54:35;10.38;;;7.68;;
63046;SDS011;62025;39.238;9.126;2023-03-23T19:57:03;12.30;;;8.95;;
63046;SDS011;62025;39.238;9.126;2023-03-23T19:59:30;13.48;;;9.32;;
63046;SDS011;62025;39.238;9.126;2023-03-23T20:01:56;16.10;;;10.00;;
63046;SDS011;62025;39.238;9.126;2023-03-23T20:04:22;12.68;;;9.50;;
63046;SDS011;62025;39.238;9.126;2023-03-23T20:06:48;14.52;;;8.75;;
63046;SDS011;62025;39.238;9.126;2023-03-23T20:09:14;12.55;;;8.98;;
63046;SDS011;62025;39.238;9.126;2023-03-23T20:11:41;17.65;;;9.15;;
63046;SDS011;62025;39.238;9.126;2023-03-23T20:14:07;12.18;;;8.73;;
63046;SDS011;62025;39.238;9.126;2023-03-23T20:16:34;13.57;;;9.40;;
63046;SDS011;62025;39.238;9.126;2023-03-23T20:19:01;14.15;;;8.20;;
63046;SDS011;62025;39.238;9.126;2023-03-23T20:21:28;10.45;;;8.45;;
63046;SDS011;62025;39.238;9.126;2023-03-23T20:23:56;12.73;;;9.85;;
63046;SDS011;62025;39.238;9.126;2023-03-23T20:26:31;19.03;;;11.17;;
63046;SDS011;62025;39.238;9.126;2023-03-23T20:29:02;18.23;;;12.95;;
63046;SDS011;62025;39.238;9.126;2023-03-23T20:31:31;16.63;;;14.20;;
63046;SDS011;62025;39.238;9.126;2023-03-23T20:34:07;18.92;;;14.27;;
63046;SDS011;62025;39.238;9.126;2023-03-23T20:36:42;23.60;;;14.40;;
63046;SDS011;62025;39.238;9.126;2023-03-23T20:39:12;18.27;;;14.68;;
63046;SDS011;62025;39.238;9.126;2023-03-23T20:41:45;22.90;;;15.98;;
63046;SDS011;62025;39.238;9.126;2023-03-23T20:44:16;22.48;;;15.95;;
63046;SDS011;62025;39.238;9.126;2023-03-23T20:46:48;19.70;;;15.77;;
63046;SDS011;62025;39.238;9.126;2023-03-23T20:49:17;23.58;;;15.70;;
63046;SDS011;62025;39.238;9.126;2023-03-23T20:51:45;21.02;;;15.63;;
63046;SDS011;62025;39.238;9.126;2023-03-23T20:54:13;17.70;;;14.80;;
63046;SDS011;62025;39.238;9.126;2023-03-23T20:56:43;21.17;;;15.07;;
63046;SDS011;62025;39.238;9.126;2023-03-23T20:59:11;15.65;;;12.52;;
63046;SDS011;62025;39.238;9.126;2023-03-23T21:01:39;13.17;;;11.00;;
63046;SDS011;62025;39.238;9.126;2023-03-23T21:04:07;17.35;;;11.05;;
63046;SDS011;62025;39.238;9.126;2023-03-23T21:06:39;14.80;;;10.70;;
63046;SDS011;62025;39.238;9.126;2023-03-23T21:09:09;13.48;;;10.88;;
63046;SDS011;62025;39.238;9.126;2023-03-23T21:11:38;14.10;;;11.48;;
63046;SDS011;62025;39.238;9.126;2023-03-23T21:14:05;14.20;;;10.98;;
63046;SDS011;62025;39.238;9.126;2023-03-23T21:16:32;13.52;;;9.55;;
63046;SDS011;62025;39.238;9.126;2023-03-23T21:19:00;14.68;;;9.85;;
63046;SDS011;62025;39.238;9.126;2023-03-23T21:21:29;14.38;;;11.00;;
63046;SDS011;62025;39.238;9.126;2023-03-23T21:23:56;15.50;;;10.48;;
63046;SDS011;62025;39.238;9.126;2023-03-23T21:26:51;17.70;;;11.80;;
63046;SDS011;62025;39.238;9.126;2023-03-23T21:29:20;18.75;;;13.30;;
63046;SDS011;62025;39.238;9.126;2023-03-23T21:31:48;18.20;;;14.00;;
63046;SDS011;62025;39.238;9.126;2023-03-23T21:34:17;19.52;;;13.98;;
63046;SDS011;62025;39.238;9.126;2023-03-23T21:36:47;18.27;;;14.38;;
63046;SDS011;62025;39.238;9.126;2023-03-23T21:39:13;22.77;;;13.80;;
63046;SDS011;62025;39.238;9.126;2023-03-23T21:41:39;17.27;;;12.40;;
63046;SDS011;62025;39.238;9.126;2023-03-23T21:44:06;19.73;;;12.35;;
63046;SDS011;62025;39.238;9.126;2023-03-23T21:46:36;17.90;;;11.25;;
63046;SDS011;62025;39.238;9.126;2023-03-23T21:49:03;16.67;;;11.63;;
63046;SDS011;62025;39.238;9.126;2023-03-23T21:51:34;15.75;;;10.43;;
63046;SDS011;62025;39.238;9.126;2023-03-23T21:54:02;14.75;;;10.88;;
63046;SDS011;62025;39.238;9.126;2023-03-23T21:56:28;14.57;;;10.57;;
63046;SDS011;62025;39.238;9.126;2023-03-23T21:58:54;12.93;;;9.63;;
63046;SDS011;62025;39.238;9.126;2023-03-23T22:01:21;16.45;;;10.52;;
63046;SDS011;62025;39.238;9.126;2023-03-23T22:03:47;17.48;;;11.65;;
63046;SDS011;62025;39.238;9.126;2023-03-23T22:06:16;17.52;;;10.30;;
63046;SDS011;62025;39.238;9.126;2023-03-23T22:08:47;18.83;;;11.50;;
63046;SDS011;62025;39.238;9.126;2023-03-23T22:11:15;19.10;;;13.95;;
63046;SDS011;62025;39.238;9.126;2023-03-23T22:13:47;21.42;;;15.85;;
63046;SDS011;62025;39.238;9.126;2023-03-23T22:16:14;21.17;;;13.60;;
63046;SDS011;62025;39.238;9.126;2023-03-23T22:18:42;15.90;;;12.38;;
63046;SDS011;62025;39.238;9.126;2023-03-23T22:21:10;17.73;;;13.05;;
63046;SDS011;62025;39.238;9.126;2023-03-23T22:23:38;19.25;;;13.45;;
63046;SDS011;62025;39.238;9.126;2023-03-23T22:26:06;20.10;;;13.83;;
63046;SDS011;62025;39.238;9.126;2023-03-23T22:28:34;19.15;;;13.50;;
63046;SDS011;62025;39.238;9.126;2023-03-23T22:31:02;20.48;;;14.73;;
63046;SDS011;62025;39.238;9.126;2023-03-23T22:33:32;21.85;;;15.65;;
63046;SDS011;62025;39.238;9.126;2023-03-23T22:35:59;22.55;;;14.68;;
63046;SDS011;62025;39.238;9.126;2023-03-23T22:38:34;22.35;;;14.07;;
63046;SDS011;62025;39.238;9.126;2023-03-23T22:41:03;22.48;;;14.65;;
63046;SDS011;62025;39.238;9.126;2023-03-23T22:43:31;20.58;;;14.68;;
63046;SDS011;62025;39.238;9.126;2023-03-23T22:45:58;21.42;;;14.43;;
63046;SDS011;62025;39.238;9.126;2023-03-23T22:48:25;17.92;;;14.02;;
63046;SDS011;62025;39.238;9.126;2023-03-23T22:50:52;20.95;;;14.32;;
63046;SDS011;62025;39.238;9.126;2023-03-23T22:53:19;21.58;;;14.77;;
63046;SDS011;62025;39.238;9.126;2023-03-23T22:55:49;21.80;;;14.55;;
63046;SDS011;62025;39.238;9.126;2023-03-23T22:58:18;20.00;;;14.57;;
63046;SDS011;62025;39.238;9.126;2023-03-23T23:00:45;21.42;;;14.07;;
63046;SDS011;62025;39.238;9.126;2023-03-23T23:03:14;19.40;;;14.00;;
63046;SDS011;62025;39.238;9.126;2023-03-23T23:05:41;17.10;;;12.80;;
63046;SDS011;62025;39.238;9.126;2023-03-23T23:08:11;19.25;;;13.13;;
63046;SDS011;62025;39.238;9.126;2023-03-23T23:10:38;16.83;;;13.23;;
63046;SDS011;62025;39.238;9.126;2023-03-23T23:13:07;19.60;;;13.50;;
63046;SDS011;62025;39.238;9.126;2023-03-23T23:15:35;20.27;;;13.82;;
63046;SDS011;62025;39.238;9.126;2023-03-23T23:18:04;20.73;;;13.38;;
63046;SDS011;62025;39.238;9.126;2023-03-23T23:20:31;18.83;;;13.13;;
63046;SDS011;62025;39.238;9.126;2023-03-23T23:22:58;19.95;;;14.00;;
63046;SDS011;62025;39.238;9.126;2023-03-23T23:25:36;21.38;;;13.93;;
63046;SDS011;62025;39.238;9.126;2023-03-23T23:28:03;20.67;;;12.70;;
63046;SDS011;62025;39.238;9.126;2023-03-23T23:30:31;15.93;;;12.32;;
63046;SDS011;62025;39.238;9.126;2023-03-23T23:32:59;14.57;;;11.93;;
63046;SDS011;62025;39.238;9.126;2023-03-23T23:35:26;17.38;;;12.75;;
63046;SDS011;62025;39.238;9.126;2023-03-23T23:37:52;17.15;;;13.27;;
63046;SDS011;62025;39.238;9.126;2023-03-23T23:40:19;21.35;;;13.48;;
63046;SDS011;62025;39.238;9.126;2023-03-23T23:42:48;21.25;;;14.90;;
63046;SDS011;62025;39.238;9.126;2023-03-23T23:45:15;19.35;;;14.02;;
63046;SDS011;62025;39.238;9.126;2023-03-23T23:47:43;19.30;;;12.93;;
63046;SDS011;62025;39.238;9.126;2023-03-23T23:50:10;34.17;;;13.82;;
63046;SDS011;62025;39.238;9.126;2023-03-23T23:55:47;21.45;;;13.13;;
63046;SDS011;62025;39.238;9.126;2023-03-23T23:58:22;20.52;;;14.50;;
